createdAt,value
2022-10-04T00:01:53.176Z,14.52
2022-10-04T00:04:25.959Z,15.40
2022-10-04T00:06:58.594Z,11.60
2022-10-04T00:09:29.422Z,13.98
2022-10-04T00:11:58.091Z,19.27
2022-10-04T00:14:30.452Z,15.98
2022-10-04T00:19:40.542Z,18.48
2022-10-04T00:22:14.182Z,15.35
2022-10-04T00:25:17.460Z,15.73
2022-10-04T00:28:25.505Z,15.88
2022-10-04T00:31:21.966Z,11.50
2022-10-04T00:33:53.424Z,20.58
2022-10-04T00:36:49.018Z,15.40
2022-10-04T00:39:38.598Z,18.88
2022-10-04T00:42:35.766Z,10.93
2022-10-04T00:45:08.763Z,13.32
2022-10-04T00:48:01.240Z,18.17
2022-10-04T00:50:34.781Z,14.15
2022-10-04T00:53:04.293Z,19.40
2022-10-04T00:55:36.154Z,11.07
2022-10-04T00:58:07.437Z,17.55
2022-10-04T01:00:35.942Z,16.60
2022-10-04T01:03:07.817Z,11.48
2022-10-04T01:05:40.249Z,14.90
2022-10-04T01:10:40.316Z,14.20
2022-10-04T01:13:11.232Z,18.65
2022-10-04T01:15:44.133Z,13.73
2022-10-04T01:18:15.290Z,11.52
2022-10-04T01:20:55.218Z,15.02
2022-10-04T01:23:35.695Z,13.85
2022-10-04T01:26:05.718Z,10.00
2022-10-04T01:28:34.306Z,17.00
2022-10-04T01:31:02.494Z,16.73
2022-10-04T01:33:31.199Z,16.23
2022-10-04T01:35:59.432Z,23.60
2022-10-04T01:38:27.355Z,20.15
2022-10-04T01:41:00.409Z,16.58
2022-10-04T01:43:32.997Z,19.13
2022-10-04T01:46:04.790Z,13.13
2022-10-04T01:48:37.536Z,17.35
2022-10-04T01:51:08.683Z,13.88
2022-10-04T01:53:41.666Z,15.55
2022-10-04T01:56:14.635Z,16.40
2022-10-04T01:58:44.888Z,19.17
2022-10-04T02:01:16.004Z,10.60
2022-10-04T02:03:46.533Z,15.77
2022-10-04T02:06:15.779Z,19.17
2022-10-04T02:08:49.390Z,23.13
2022-10-04T02:11:21.407Z,15.15
2022-10-04T02:13:51.732Z,18.48
2022-10-04T02:16:20.358Z,17.92
2022-10-04T02:18:48.611Z,21.15
2022-10-04T02:21:16.776Z,20.10
2022-10-04T02:23:46.911Z,22.02
2022-10-04T02:26:14.866Z,14.82
2022-10-04T02:28:44.177Z,12.25
2022-10-04T02:31:30.246Z,16.02
2022-10-04T02:33:59.612Z,16.65
2022-10-04T02:36:29.428Z,12.43
2022-10-04T02:39:01.643Z,20.88
2022-10-04T02:41:32.788Z,16.52
2022-10-04T02:44:05.362Z,13.18
2022-10-04T02:46:35.345Z,18.48
2022-10-04T02:49:07.223Z,17.67
2022-10-04T02:51:40.336Z,20.33
2022-10-04T02:54:15.649Z,19.88
2022-10-04T02:56:44.281Z,12.77
2022-10-04T02:59:17.205Z,16.88
2022-10-04T03:01:52.162Z,11.95
2022-10-04T03:04:23.221Z,13.35
2022-10-04T03:06:51.370Z,16.70
2022-10-04T03:09:25.031Z,17.17
2022-10-04T03:11:56.444Z,21.13
2022-10-04T03:14:29.533Z,17.95
2022-10-04T03:17:00.646Z,13.32
2022-10-04T03:19:30.814Z,23.08
2022-10-04T03:22:02.176Z,17.60
2022-10-04T03:24:32.396Z,17.30
2022-10-04T03:27:02.667Z,15.45
2022-10-04T03:29:34.004Z,15.52
2022-10-04T03:32:04.685Z,13.73
2022-10-04T03:34:35.221Z,15.45
2022-10-04T03:37:03.808Z,16.85
2022-10-04T03:39:33.827Z,24.45
2022-10-04T03:42:04.295Z,17.45
2022-10-04T03:44:34.405Z,18.90
2022-10-04T03:47:02.571Z,15.68
2022-10-04T03:49:33.864Z,30.00
2022-10-04T03:52:02.318Z,17.90
2022-10-04T03:54:30.703Z,18.23
2022-10-04T03:56:59.631Z,20.60
2022-10-04T03:59:29.384Z,18.15
2022-10-04T04:02:06.735Z,19.58
2022-10-04T04:04:43.141Z,10.82
2022-10-04T04:07:14.448Z,14.80
2022-10-04T04:09:45.242Z,17.63
2022-10-04T04:12:17.643Z,18.73
2022-10-04T04:17:39.098Z,15.88
2022-10-04T04:20:16.824Z,14.00
2022-10-04T04:22:46.604Z,24.15
2022-10-04T04:25:17.064Z,18.20
2022-10-04T04:27:45.618Z,11.90
2022-10-04T04:30:16.888Z,17.85
2022-10-04T04:32:47.635Z,17.85
2022-10-04T04:35:23.448Z,21.05
2022-10-04T04:38:04.595Z,18.42
2022-10-04T04:40:34.246Z,19.13
2022-10-04T04:43:03.420Z,15.57
2022-10-04T04:45:32.823Z,11.80
2022-10-04T04:48:03.877Z,16.75
2022-10-04T04:50:34.002Z,16.38
2022-10-04T04:53:06.580Z,13.63
2022-10-04T04:56:01.776Z,12.77
2022-10-04T04:58:26.922Z,22.45
2022-10-04T05:00:57.811Z,18.67
2022-10-04T05:03:29.965Z,16.30
2022-10-04T05:06:00.897Z,19.00
2022-10-04T05:08:29.922Z,20.10
2022-10-04T05:11:05.320Z,17.70
2022-10-04T05:13:37.206Z,23.42
2022-10-04T05:16:05.350Z,17.75
2022-10-04T05:18:34.874Z,14.32
2022-10-04T05:21:07.872Z,17.30
2022-10-04T05:23:36.175Z,21.75
2022-10-04T05:26:06.409Z,20.00
2022-10-04T05:28:34.417Z,16.35
2022-10-04T05:31:13.862Z,18.38
2022-10-04T05:33:49.208Z,9.90
2022-10-04T05:36:48.320Z,12.20
2022-10-04T05:39:24.133Z,13.43
2022-10-04T05:41:58.559Z,13.20
2022-10-04T05:44:28.754Z,15.88
2022-10-04T05:46:58.150Z,15.80
2022-10-04T05:49:30.383Z,16.13
2022-10-04T05:52:01.111Z,13.60
2022-10-04T05:54:31.345Z,24.40
2022-10-04T05:57:23.682Z,14.48
2022-10-04T06:00:09.821Z,12.20
2022-10-04T06:02:51.190Z,17.73
2022-10-04T06:05:28.767Z,15.35
2022-10-04T06:07:59.740Z,15.40
2022-10-04T06:10:48.000Z,15.32
2022-10-04T06:13:29.028Z,21.00
2022-10-04T06:15:59.025Z,20.02
2022-10-04T06:18:38.251Z,18.58
2022-10-04T06:21:18.443Z,20.20
2022-10-04T06:23:51.866Z,16.17
2022-10-04T06:26:24.930Z,23.30
2022-10-04T06:28:56.103Z,19.88
2022-10-04T06:31:57.385Z,19.13
2022-10-04T06:34:51.893Z,15.57
2022-10-04T06:37:49.008Z,16.10
2022-10-04T06:40:29.863Z,20.60
2022-10-04T06:43:10.412Z,15.63
2022-10-04T06:45:54.101Z,26.10
2022-10-04T06:48:36.900Z,17.67
2022-10-04T06:51:27.605Z,18.85
2022-10-04T06:54:03.651Z,14.82
2022-10-04T06:56:43.984Z,19.13
2022-10-04T06:59:20.930Z,23.20
2022-10-04T07:01:50.995Z,12.50
2022-10-04T07:04:25.459Z,17.58
2022-10-04T07:07:24.752Z,10.35
2022-10-04T07:09:56.034Z,18.98
2022-10-04T07:12:24.671Z,12.73
2022-10-04T07:14:55.216Z,11.82
2022-10-04T07:17:26.968Z,13.10
2022-10-04T07:19:56.106Z,14.00
2022-10-04T07:22:27.926Z,14.05
2022-10-04T07:25:06.468Z,18.85
2022-10-04T07:27:38.420Z,8.63
2022-10-04T07:30:07.730Z,11.75
2022-10-04T07:32:38.707Z,9.13
2022-10-04T07:35:16.779Z,11.77
2022-10-04T07:37:50.039Z,11.52
2022-10-04T07:40:25.235Z,18.17
2022-10-04T07:42:56.424Z,16.20
2022-10-04T07:45:30.022Z,12.18
2022-10-04T07:48:04.924Z,11.48
2022-10-04T07:50:36.523Z,13.13
2022-10-04T07:53:09.667Z,10.90
2022-10-04T07:55:46.836Z,10.80
2022-10-04T07:58:31.653Z,20.75
2022-10-04T08:01:02.112Z,13.80
2022-10-04T08:03:46.582Z,15.85
2022-10-04T08:06:19.069Z,12.38
2022-10-04T08:09:01.859Z,17.77
2022-10-04T08:11:39.727Z,9.55
2022-10-04T08:14:19.751Z,8.75
2022-10-04T08:16:55.589Z,12.85
2022-10-04T08:19:36.110Z,10.98
2022-10-04T08:22:08.634Z,10.07
2022-10-04T08:24:39.435Z,8.05
2022-10-04T08:27:25.640Z,14.43
2022-10-04T08:30:04.639Z,5.13
2022-10-04T08:32:54.716Z,8.73
2022-10-04T08:35:31.163Z,8.02
2022-10-04T08:38:08.310Z,9.32
2022-10-04T08:40:52.301Z,9.43
2022-10-04T08:43:50.983Z,8.73
2022-10-04T08:46:40.310Z,10.65
2022-10-04T08:49:30.205Z,9.52
2022-10-04T08:52:22.758Z,11.10
2022-10-04T08:55:11.779Z,10.48
2022-10-04T08:57:57.328Z,9.32
2022-10-04T09:00:32.549Z,9.07
2022-10-04T09:03:36.778Z,7.50
2022-10-04T09:06:26.488Z,12.38
2022-10-04T09:09:44.575Z,9.10
2022-10-04T09:12:44.334Z,14.38
2022-10-04T09:15:22.594Z,11.60
2022-10-04T09:18:03.506Z,9.55
2022-10-04T09:20:44.634Z,11.25
2022-10-04T09:23:41.643Z,10.48
2022-10-04T09:26:21.721Z,11.50
2022-10-04T09:29:34.214Z,13.70
2022-10-04T09:32:16.297Z,13.70
2022-10-04T09:35:11.109Z,12.30
2022-10-04T09:37:56.209Z,11.95
2022-10-04T09:40:50.920Z,11.40
2022-10-04T09:43:44.135Z,9.68
2022-10-04T09:46:29.360Z,15.07
2022-10-04T09:49:06.769Z,14.55
2022-10-04T09:52:02.251Z,11.23
2022-10-04T09:54:58.356Z,13.23
2022-10-04T09:57:31.648Z,13.43
2022-10-04T10:00:09.736Z,10.77
2022-10-04T10:03:14.773Z,17.80
2022-10-04T10:06:09.976Z,10.52
2022-10-04T10:08:48.383Z,7.05
2022-10-04T10:11:41.058Z,6.03
2022-10-04T10:14:22.613Z,10.00
2022-10-04T10:17:00.994Z,9.95
2022-10-04T10:19:40.640Z,6.65
2022-10-04T10:22:26.832Z,9.18
2022-10-04T10:25:22.302Z,14.18
2022-10-04T10:28:17.037Z,11.27
2022-10-04T10:30:57.827Z,9.98
2022-10-04T10:33:38.452Z,10.02
2022-10-04T10:36:40.781Z,7.65
2022-10-04T10:39:38.431Z,8.88
2022-10-04T10:42:21.003Z,9.35
2022-10-04T10:45:03.175Z,5.10
2022-10-04T10:47:38.564Z,7.60
2022-10-04T10:50:28.451Z,7.38
2022-10-04T10:53:14.204Z,10.45
2022-10-04T10:56:33.065Z,7.35
2022-10-04T10:59:30.075Z,10.38
2022-10-04T11:02:12.861Z,6.85
2022-10-04T11:05:04.408Z,6.00
2022-10-04T11:07:50.320Z,10.05
2022-10-04T11:10:51.938Z,8.43
2022-10-04T11:13:29.285Z,8.10
2022-10-04T11:16:21.317Z,9.23
2022-10-04T11:19:23.469Z,9.25
2022-10-04T11:22:10.530Z,6.73
2022-10-04T11:24:57.280Z,11.40
2022-10-04T11:27:35.285Z,7.50
2022-10-04T11:30:16.810Z,10.52
2022-10-04T11:33:24.551Z,8.83
2022-10-04T11:36:26.259Z,7.78
2022-10-04T11:39:13.145Z,10.25
2022-10-04T11:41:50.263Z,8.13
2022-10-04T11:44:41.072Z,7.75
2022-10-04T11:47:21.822Z,10.63
2022-10-04T11:49:59.051Z,11.45
2022-10-04T11:52:41.623Z,8.32
2022-10-04T11:55:31.249Z,4.00
2022-10-04T11:58:02.114Z,7.00
2022-10-04T12:00:55.821Z,10.85
2022-10-04T12:03:57.448Z,8.05
2022-10-04T12:06:43.314Z,11.57
2022-10-04T12:09:15.803Z,8.38
2022-10-04T12:15:04.442Z,9.43
2022-10-04T12:18:05.205Z,6.68
2022-10-04T12:20:44.408Z,4.63
2022-10-04T12:23:37.931Z,12.82
2022-10-04T12:26:47.765Z,6.38
2022-10-04T12:29:28.895Z,6.25
2022-10-04T12:31:59.302Z,7.93
2022-10-04T12:34:31.867Z,8.77
2022-10-04T12:37:13.970Z,7.07
2022-10-04T12:40:04.679Z,8.77
2022-10-04T12:42:39.613Z,8.77
2022-10-04T12:45:28.996Z,6.15
2022-10-04T12:48:08.972Z,8.88
2022-10-04T12:50:47.741Z,7.05
2022-10-04T12:53:23.836Z,7.40
2022-10-04T12:56:02.420Z,15.27
2022-10-04T12:58:38.544Z,6.20
2022-10-04T13:01:13.251Z,8.55
2022-10-04T13:04:01.168Z,6.80
2022-10-04T13:06:33.570Z,11.07
2022-10-04T13:09:07.785Z,10.27
2022-10-04T13:11:58.935Z,7.32
2022-10-04T13:14:36.912Z,8.95
2022-10-04T13:17:28.681Z,7.40
2022-10-04T13:20:22.440Z,8.05
2022-10-04T13:22:56.837Z,8.02
2022-10-04T13:25:40.398Z,5.18
2022-10-04T13:28:23.165Z,8.43
2022-10-04T13:30:56.870Z,7.07
2022-10-04T13:33:31.508Z,5.82
2022-10-04T13:36:07.119Z,6.28
2022-10-04T13:38:56.748Z,4.25
2022-10-04T13:41:36.634Z,5.75
2022-10-04T13:44:21.421Z,8.70
2022-10-04T13:47:06.359Z,10.27
2022-10-04T13:49:44.888Z,13.38
2022-10-04T13:52:41.235Z,7.85
2022-10-04T13:55:38.392Z,7.03
2022-10-04T13:58:15.705Z,5.57
2022-10-04T14:00:56.967Z,3.92
2022-10-04T14:03:36.155Z,8.77
2022-10-04T14:06:30.448Z,2.40
2022-10-04T14:09:18.487Z,8.18
2022-10-04T14:12:18.176Z,5.00
2022-10-04T14:15:23.858Z,7.13
2022-10-04T14:18:13.029Z,10.10
2022-10-04T14:21:21.735Z,5.30
2022-10-04T14:24:13.967Z,9.02
2022-10-04T14:27:07.333Z,7.18
2022-10-04T14:30:12.740Z,6.00
2022-10-04T14:33:09.110Z,4.82
2022-10-04T14:35:44.505Z,4.63
2022-10-04T14:38:38.841Z,5.07
2022-10-04T14:41:29.953Z,4.28
2022-10-04T14:44:24.472Z,6.10
2022-10-04T14:47:01.785Z,4.13
2022-10-04T14:49:45.569Z,5.82
2022-10-04T14:52:29.980Z,4.32
2022-10-04T14:55:11.659Z,7.30
2022-10-04T14:57:51.748Z,4.73
2022-10-04T15:00:21.486Z,6.05
2022-10-04T15:03:11.271Z,4.85
2022-10-04T15:06:01.035Z,4.95
2022-10-04T15:08:39.723Z,6.18
2022-10-04T15:11:09.048Z,3.28
2022-10-04T15:13:40.886Z,8.70
2022-10-04T15:16:17.811Z,3.60
2022-10-04T15:18:52.109Z,4.45
2022-10-04T15:21:44.829Z,7.43
2022-10-04T15:29:30.854Z,2.88
2022-10-04T15:32:07.295Z,8.05
2022-10-04T15:34:42.239Z,5.57
2022-10-04T15:37:19.527Z,5.40
2022-10-04T15:40:22.144Z,7.70
2022-10-04T15:43:00.602Z,2.22
2022-10-04T15:45:39.033Z,5.13
2022-10-04T15:48:24.183Z,2.97
2022-10-04T15:51:01.476Z,7.03
2022-10-04T15:53:45.762Z,3.22
2022-10-04T15:56:25.294Z,7.60
2022-10-04T15:59:00.336Z,4.15
2022-10-04T16:01:55.209Z,6.70
2022-10-04T16:04:40.730Z,4.93
2022-10-04T16:08:12.610Z,6.20
2022-10-04T16:11:02.666Z,5.43
2022-10-04T16:13:50.515Z,8.45
2022-10-04T16:16:51.107Z,8.43
2022-10-04T16:19:30.178Z,3.92
2022-10-04T16:22:11.197Z,9.65
2022-10-04T16:24:42.211Z,3.97
2022-10-04T16:27:48.470Z,7.00
2022-10-04T16:30:27.527Z,5.10
2022-10-04T16:33:29.418Z,6.95
2022-10-04T16:36:11.579Z,4.85
2022-10-04T16:39:07.735Z,16.83
2022-10-04T16:41:42.258Z,8.65
2022-10-04T16:44:24.154Z,5.78
2022-10-04T16:46:54.987Z,9.15
2022-10-04T16:49:27.650Z,5.30
2022-10-04T16:52:13.652Z,7.53
2022-10-04T16:55:12.211Z,6.07
2022-10-04T16:57:43.415Z,4.75
2022-10-04T17:00:35.915Z,5.35
2022-10-04T17:03:13.816Z,7.60
2022-10-04T17:06:03.711Z,6.68
2022-10-04T17:09:01.947Z,10.48
2022-10-04T17:11:37.919Z,7.50
2022-10-04T17:14:43.502Z,8.13
2022-10-04T17:17:22.197Z,8.65
2022-10-04T17:19:58.305Z,12.32
2022-10-04T17:22:38.353Z,6.60
2022-10-04T17:25:19.825Z,8.85
2022-10-04T17:27:51.415Z,7.60
2022-10-04T17:30:22.717Z,6.53
2022-10-04T17:33:20.191Z,9.15
2022-10-04T17:36:40.320Z,8.38
2022-10-04T17:39:33.362Z,7.63
2022-10-04T17:42:09.929Z,7.35
2022-10-04T17:45:04.057Z,14.30
2022-10-04T17:47:59.595Z,8.45
2022-10-04T17:50:47.986Z,6.13
2022-10-04T17:53:38.507Z,9.30
2022-10-04T17:56:08.780Z,11.07
2022-10-04T17:58:43.980Z,9.40
2022-10-04T18:01:15.277Z,8.77
2022-10-04T18:03:47.754Z,9.18
2022-10-04T18:06:31.896Z,8.48
2022-10-04T18:09:04.659Z,9.80
2022-10-04T18:11:44.099Z,10.23
2022-10-04T18:14:15.680Z,6.15
2022-10-04T18:16:48.403Z,11.27
2022-10-04T18:19:36.295Z,7.68
2022-10-04T18:22:15.210Z,9.43
2022-10-04T18:24:44.136Z,15.65
2022-10-04T18:27:19.590Z,8.45
2022-10-04T18:30:00.678Z,19.00
2022-10-04T18:32:33.281Z,12.30
2022-10-04T18:35:03.726Z,12.38
2022-10-04T18:37:34.901Z,10.27
2022-10-04T18:40:16.245Z,9.43
2022-10-04T18:42:52.284Z,6.97
2022-10-04T18:45:24.145Z,7.75
2022-10-04T18:47:53.134Z,8.05
2022-10-04T18:50:30.555Z,11.25
2022-10-04T18:53:22.748Z,9.40
2022-10-04T18:55:59.375Z,10.25
2022-10-04T18:58:55.971Z,7.38
2022-10-04T19:02:03.394Z,11.10
2022-10-04T19:04:39.856Z,7.82
2022-10-04T19:07:11.348Z,5.22
2022-10-04T19:10:07.331Z,11.80
2022-10-04T19:12:44.693Z,11.85
2022-10-04T19:15:35.072Z,11.30
2022-10-04T19:18:15.171Z,13.63
2022-10-04T19:20:49.602Z,13.45
2022-10-04T19:23:26.823Z,12.27
2022-10-04T19:26:29.936Z,8.43
2022-10-04T19:28:45.979Z,9.02
2022-10-04T19:31:19.948Z,13.27
2022-10-04T19:33:51.464Z,11.18
2022-10-04T19:36:31.568Z,8.40
2022-10-04T19:39:12.515Z,11.20
2022-10-04T19:41:50.977Z,5.55
2022-10-04T19:44:41.608Z,8.23
2022-10-04T19:47:22.347Z,6.25
2022-10-04T19:49:54.659Z,6.75
2022-10-04T19:52:29.377Z,8.68
2022-10-04T19:55:02.380Z,7.80
2022-10-04T19:57:37.999Z,11.43
2022-10-04T20:00:13.550Z,10.35
2022-10-04T20:02:48.205Z,12.75
2022-10-04T20:05:20.238Z,8.32
2022-10-04T20:07:52.907Z,7.90
2022-10-04T20:10:30.094Z,9.07
2022-10-04T20:13:25.283Z,10.40
2022-10-04T20:15:59.983Z,17.40
2022-10-04T20:19:05.753Z,11.13
2022-10-04T20:21:35.948Z,7.50
2022-10-04T20:24:06.690Z,8.18
2022-10-04T20:26:53.682Z,5.82
2022-10-04T20:30:04.473Z,10.55
2022-10-04T20:36:02.717Z,5.97
2022-10-04T20:38:55.405Z,9.32
2022-10-04T20:42:22.927Z,9.90
2022-10-04T20:44:56.288Z,7.55
2022-10-04T20:47:33.834Z,6.40
2022-10-04T20:50:03.259Z,7.30
2022-10-04T20:52:33.046Z,9.57
2022-10-04T20:55:09.106Z,14.25
2022-10-04T20:57:40.670Z,7.18
2022-10-04T21:00:19.579Z,10.43
2022-10-04T21:02:48.263Z,8.30
2022-10-04T21:05:24.091Z,16.65
2022-10-04T21:08:14.079Z,8.50
2022-10-04T21:11:11.599Z,9.70
2022-10-04T21:13:59.504Z,11.60
2022-10-04T21:16:35.700Z,7.57
2022-10-04T21:19:43.521Z,7.53
2022-10-04T21:22:31.732Z,9.45
2022-10-04T21:25:01.242Z,12.13
2022-10-04T21:27:32.616Z,11.57
2022-10-04T21:30:02.113Z,10.18
2022-10-04T21:32:35.390Z,7.07
2022-10-04T21:35:03.824Z,4.60
2022-10-04T21:37:32.220Z,5.68
2022-10-04T21:40:00.231Z,12.00
2022-10-04T21:42:29.789Z,8.05
2022-10-04T21:44:59.414Z,9.50
2022-10-04T21:47:27.599Z,10.48
2022-10-04T21:49:55.941Z,6.90
2022-10-04T21:52:24.016Z,5.78
2022-10-04T21:54:51.963Z,8.98
2022-10-04T21:57:20.000Z,7.70
2022-10-04T21:59:48.428Z,9.45
2022-10-04T22:02:18.264Z,7.75
2022-10-04T22:04:46.699Z,9.00
2022-10-04T22:07:14.814Z,9.57
2022-10-04T22:09:42.842Z,8.48
2022-10-04T22:12:10.846Z,12.02
2022-10-04T22:14:38.893Z,10.07
2022-10-04T22:17:12.749Z,8.90
2022-10-04T22:19:41.991Z,12.45
2022-10-04T22:22:15.071Z,10.90
2022-10-04T22:24:43.630Z,9.00
2022-10-04T22:27:14.320Z,13.20
2022-10-04T22:29:42.365Z,12.82
2022-10-04T22:32:12.818Z,15.35
2022-10-04T22:37:35.270Z,6.32
2022-10-04T22:40:03.640Z,9.27
2022-10-04T22:42:32.742Z,11.77
2022-10-04T22:45:02.644Z,6.53
2022-10-04T22:47:33.896Z,6.90
2022-10-04T22:50:03.303Z,8.68
2022-10-04T22:52:32.557Z,9.80
2022-10-04T22:55:03.099Z,9.15
2022-10-04T22:57:32.017Z,11.60
2022-10-04T23:00:00.201Z,8.38
2022-10-04T23:02:31.189Z,8.88
2022-10-04T23:05:10.753Z,7.05
2022-10-04T23:07:38.875Z,10.20
2022-10-04T23:10:08.057Z,8.40
2022-10-04T23:12:36.235Z,11.15
2022-10-04T23:15:06.408Z,9.30
2022-10-04T23:17:36.896Z,7.53
2022-10-04T23:20:13.862Z,12.38
2022-10-04T23:22:44.788Z,12.10
2022-10-04T23:25:16.975Z,11.93
2022-10-04T23:27:45.797Z,11.75
2022-10-04T23:30:16.820Z,9.25
2022-10-04T23:32:49.824Z,9.77
2022-10-04T23:35:21.925Z,8.23
2022-10-04T23:37:50.661Z,12.88
2022-10-04T23:40:20.600Z,9.93
2022-10-04T23:42:50.347Z,8.98
2022-10-04T23:45:21.414Z,11.70
2022-10-04T23:47:51.281Z,8.82
2022-10-04T23:50:23.874Z,8.38
2022-10-04T23:52:53.720Z,9.73
2022-10-04T23:55:24.036Z,10.18
2022-10-04T23:57:52.454Z,7.25
